Marlow, Oklahoma
Current Conditions -  °F | °C
As of 1:15 PM on Friday 21 Nov 2014 (Local Time) from KDUC Reporting Station
Broken Clouds Broken Clouds  
Wind Chill: 64°   Ceiling: 3500
Heat Index: 64°   Visibility: 10mi
Dew Point: 57°   Wind: 8mph
Humidity: 77%   Direction: 210°SSW
Pressure: 30.03"   Gusts: NA
Location:  34.65°N, 97.96°W
Report Text: KDUC 211915Z AUTO 21007KT 10SM SCT020 SCT029 BKN035 18/14 A3003 RMK AO2
Loading
Personal Weather Stations






























Interactive Weather Map New forecast layout! Learn more

10-Day Weather Forecast

Advertisements
Track Severe Weather on mobile